createdAt,value
2023-05-08T00:03:40.050Z,101336.08
2023-05-08T00:08:42.451Z,101341.73
2023-05-08T00:13:44.840Z,101343.39
2023-05-08T00:18:46.936Z,101338.11
2023-05-08T00:23:49.105Z,101337.14
2023-05-08T00:28:51.395Z,101344.03
2023-05-08T00:33:53.579Z,101348.17
2023-05-08T00:38:55.759Z,101353.48
2023-05-08T00:43:58.046Z,101352.09
2023-05-08T00:49:01.150Z,101354.27
2023-05-08T00:54:03.888Z,101358.30
2023-05-08T00:59:11.184Z,101360.02
2023-05-08T01:04:14.680Z,101369.89
2023-05-08T01:09:16.856Z,101371.41
2023-05-08T01:14:37.167Z,101375.06
2023-05-08T01:20:06.690Z,101374.52
2023-05-08T01:25:44.003Z,101375.62
2023-05-08T01:31:11.783Z,101383.02
2023-05-08T01:36:57.489Z,101387.05
2023-05-08T01:42:13.905Z,101388.52
2023-05-08T01:47:18.679Z,101389.57
2023-05-08T01:52:32.915Z,101388.64
2023-05-08T01:57:39.845Z,101389.02
2023-05-08T02:02:42.466Z,101396.38
2023-05-08T02:07:48.120Z,101394.71
2023-05-08T02:12:51.200Z,101395.61
2023-05-08T02:17:55.058Z,101402.65
2023-05-08T02:22:57.894Z,101407.05
2023-05-08T02:28:01.105Z,101406.92
2023-05-08T02:33:05.512Z,101404.65
2023-05-08T02:38:10.388Z,101407.78
2023-05-08T02:43:12.987Z,101418.23
2023-05-08T02:48:24.926Z,101420.06
2023-05-08T02:53:43.773Z,101418.05
2023-05-08T02:59:11.652Z,101413.22
2023-05-08T03:04:25.207Z,101419.17
2023-05-08T03:09:36.769Z,101419.94
2023-05-08T03:14:44.067Z,101424.20
2023-05-08T03:19:51.970Z,101419.88
2023-05-08T03:24:56.263Z,101422.36
2023-05-08T03:30:01.518Z,101425.97
2023-05-08T03:35:05.189Z,101431.84
2023-05-08T03:40:08.349Z,101435.86
2023-05-08T03:45:11.055Z,101430.86
2023-05-08T03:50:13.579Z,101429.53
2023-05-08T03:55:16.130Z,101437.78
2023-05-08T04:00:36.439Z,101434.23
2023-05-08T04:05:49.583Z,101437.11
2023-05-08T04:11:26.425Z,101443.23
2023-05-08T04:16:32.625Z,101446.23
2023-05-08T04:21:36.696Z,101445.91
2023-05-08T04:26:40.304Z,101447.30
2023-05-08T04:31:43.132Z,101454.64
2023-05-08T04:36:45.811Z,101461.44
2023-05-08T04:41:48.534Z,101464.30
2023-05-08T04:46:50.907Z,101466.23
2023-05-08T04:51:53.689Z,101469.62
2023-05-08T04:56:55.876Z,101474.02
2023-05-08T05:01:58.548Z,101481.02
2023-05-08T05:07:01.376Z,101480.71
2023-05-08T05:12:04.570Z,101483.60
2023-05-08T05:17:06.754Z,101486.60
2023-05-08T05:22:10.275Z,101489.81
2023-05-08T05:27:12.463Z,101495.14
2023-05-08T05:32:14.752Z,101496.65
2023-05-08T05:37:17.128Z,101507.27
2023-05-08T05:42:19.309Z,101511.33
2023-05-08T05:47:21.625Z,101511.57
2023-05-08T05:52:23.879Z,101514.98
2023-05-08T05:57:26.066Z,101515.52
2023-05-08T06:02:28.395Z,101512.71
2023-05-08T06:07:30.853Z,101519.40
2023-05-08T06:12:33.027Z,101527.13
2023-05-08T06:17:35.128Z,101531.80
2023-05-08T06:22:39.754Z,101535.06
2023-05-08T06:27:41.937Z,101536.61
2023-05-08T06:32:44.152Z,101536.64
2023-05-08T06:37:46.522Z,101537.27
2023-05-08T06:42:48.902Z,101538.56
2023-05-08T06:47:51.007Z,101540.52
2023-05-08T06:52:53.070Z,101534.16
2023-05-08T06:57:55.556Z,101532.59
2023-05-08T07:02:57.794Z,101538.95
2023-05-08T07:08:00.025Z,101543.10
2023-05-08T07:13:02.296Z,101543.58
2023-05-08T07:18:04.727Z,101542.58
2023-05-08T07:23:07.308Z,101547.21
2023-05-08T07:28:09.485Z,101547.92
2023-05-08T07:33:12.280Z,101552.29
2023-05-08T07:38:14.566Z,101546.48
2023-05-08T07:43:16.863Z,101547.55
2023-05-08T07:48:19.548Z,101542.11
2023-05-08T07:53:21.637Z,101539.69
2023-05-08T07:58:24.022Z,101540.12
2023-05-08T08:03:26.370Z,101540.21
2023-05-08T08:08:28.796Z,101542.92
2023-05-08T08:13:32.431Z,101545.20
2023-05-08T08:18:37.666Z,101542.58
2023-05-08T08:23:39.852Z,101536.93
2023-05-08T08:28:42.459Z,101536.48
2023-05-08T08:33:44.632Z,101533.58
2023-05-08T08:38:46.815Z,101529.94
2023-05-08T08:43:49.214Z,101533.62
2023-05-08T08:48:54.379Z,101537.29
2023-05-08T08:54:28.185Z,101536.53
2023-05-08T08:59:32.629Z,101533.92
2023-05-08T09:04:34.710Z,101532.48
2023-05-08T09:09:40.544Z,101530.27
2023-05-08T09:14:43.379Z,101526.39
2023-05-08T09:19:49.054Z,101522.90
2023-05-08T09:24:59.923Z,101521.06
2023-05-08T09:30:10.071Z,101517.34
2023-05-08T09:35:12.674Z,101511.17
2023-05-08T09:40:20.992Z,101508.44
2023-05-08T09:45:31.712Z,101507.45
2023-05-08T09:50:34.105Z,101505.16
2023-05-08T09:55:48.723Z,101500.70
2023-05-08T10:00:51.193Z,101497.80
2023-05-08T10:05:53.450Z,101491.55
2023-05-08T10:11:14.308Z,101491.30
2023-05-08T10:16:18.229Z,101490.26
2023-05-08T10:21:20.783Z,101484.20
2023-05-08T10:26:30.766Z,101477.38
2023-05-08T10:31:36.147Z,101473.86
2023-05-08T10:36:38.809Z,101471.16
2023-05-08T10:41:41.412Z,101468.55
2023-05-08T10:47:22.097Z,101469.14
2023-05-08T10:52:29.501Z,101471.73
2023-05-08T10:57:32.003Z,101467.11
2023-05-08T11:02:36.584Z,101462.30
2023-05-08T11:07:58.788Z,101458.67
2023-05-08T11:13:01.630Z,101453.58
2023-05-08T11:18:13.116Z,101446.06
2023-05-08T11:23:25.826Z,101441.41
2023-05-08T11:28:32.738Z,101441.30
2023-05-08T11:33:37.550Z,101440.75
2023-05-08T11:38:40.451Z,101438.73
2023-05-08T11:44:00.664Z,101440.13
2023-05-08T11:49:03.154Z,101428.99
2023-05-08T11:54:06.261Z,101422.75
2023-05-08T11:59:09.064Z,101421.50
2023-05-08T12:04:12.797Z,101415.66
2023-05-08T12:09:18.358Z,101415.27
2023-05-08T12:14:23.195Z,101410.14
2023-05-08T12:19:25.271Z,101407.70
2023-05-08T12:24:27.450Z,101399.58
2023-05-08T12:29:29.534Z,101401.76
2023-05-08T12:34:32.030Z,101399.85
2023-05-08T12:39:36.939Z,101395.49
2023-05-08T12:44:38.957Z,101397.08
2023-05-08T12:49:41.346Z,101397.90
2023-05-08T12:54:47.934Z,101395.45
2023-05-08T12:59:50.118Z,101380.30
2023-05-08T13:04:55.503Z,101378.39
2023-05-08T13:10:03.131Z,101376.48
2023-05-08T13:15:05.685Z,101371.07
2023-05-08T13:20:08.841Z,101369.71
2023-05-08T13:25:10.998Z,101363.27
2023-05-08T13:30:15.093Z,101361.09
2023-05-08T13:35:18.933Z,101361.61
2023-05-08T13:40:21.005Z,101358.80
2023-05-08T13:45:23.605Z,101351.23
2023-05-08T13:50:25.681Z,101348.71
2023-05-08T13:55:27.883Z,101346.77
2023-05-08T14:00:30.257Z,101352.52
2023-05-08T14:05:32.440Z,101361.42
2023-05-08T14:10:34.929Z,101365.68
2023-05-08T14:15:37.912Z,101362.30
2023-05-08T14:20:40.335Z,101363.95
2023-05-08T14:25:42.506Z,101365.79
2023-05-08T14:30:44.588Z,101369.79
2023-05-08T14:35:48.004Z,101375.80
2023-05-08T14:40:50.596Z,101372.96
2023-05-08T14:45:52.753Z,101377.11
2023-05-08T14:50:56.818Z,101374.19
2023-05-08T14:55:59.261Z,101369.42
2023-05-08T15:01:01.692Z,101370.88
2023-05-08T15:06:04.550Z,101372.39
2023-05-08T15:11:06.571Z,101370.64
2023-05-08T15:16:09.096Z,101362.45
2023-05-08T15:21:11.242Z,101358.45
2023-05-08T15:26:13.432Z,101355.69
2023-05-08T15:31:15.848Z,101355.42
2023-05-08T15:36:18.002Z,101353.42
2023-05-08T15:41:21.420Z,101351.16
2023-05-08T15:46:23.651Z,101346.08
2023-05-08T15:51:26.094Z,101338.73
2023-05-08T15:56:28.280Z,101333.53
2023-05-08T16:01:30.387Z,101328.02
2023-05-08T16:06:32.679Z,101324.79
2023-05-08T16:11:34.726Z,101316.93
2023-05-08T16:16:38.760Z,101303.96
2023-05-08T16:21:40.529Z,101295.36
2023-05-08T16:26:42.612Z,101298.53
2023-05-08T16:31:44.826Z,101297.38
2023-05-08T16:36:46.980Z,101292.75
2023-05-08T16:41:48.990Z,101292.59
2023-05-08T16:46:51.403Z,101297.15
2023-05-08T16:51:53.414Z,101300.02
2023-05-08T16:56:55.697Z,101297.30
2023-05-08T17:01:57.717Z,101294.70
2023-05-08T17:07:00.428Z,101295.39
2023-05-08T17:12:02.412Z,101295.12
2023-05-08T17:17:04.701Z,101297.99
2023-05-08T17:22:06.789Z,101293.46
2023-05-08T17:27:09.238Z,101290.95
2023-05-08T17:32:11.503Z,101288.85
2023-05-08T17:37:13.805Z,101293.21
2023-05-08T17:42:16.093Z,101289.12
2023-05-08T17:47:18.200Z,101287.88
2023-05-08T17:52:20.459Z,101286.51
2023-05-08T17:57:22.512Z,101285.08
2023-05-08T18:02:24.977Z,101289.64
2023-05-08T18:07:27.732Z,101289.23
2023-05-08T18:12:32.084Z,101293.89
2023-05-08T18:17:34.145Z,101296.25
2023-05-08T18:22:36.748Z,101302.35
2023-05-08T18:27:42.720Z,101307.13
2023-05-08T18:32:44.826Z,101313.77
2023-05-08T18:37:47.902Z,101318.50
2023-05-08T18:42:49.911Z,101328.08
2023-05-08T18:47:53.626Z,101326.64
2023-05-08T18:52:55.994Z,101325.72
2023-05-08T18:57:58.178Z,101329.55
2023-05-08T19:03:00.529Z,101332.98
2023-05-08T19:08:05.619Z,101334.73
2023-05-08T19:13:07.746Z,101335.14
2023-05-08T19:18:09.830Z,101334.21
2023-05-08T19:23:11.965Z,101333.56
2023-05-08T19:28:15.478Z,101331.94
2023-05-08T19:33:21.573Z,101331.21
2023-05-08T19:38:25.993Z,101331.24
2023-05-08T19:43:28.176Z,101333.75
2023-05-08T19:48:30.207Z,101338.13
2023-05-08T19:53:32.440Z,101336.71
2023-05-08T19:58:34.623Z,101335.45
2023-05-08T20:03:37.415Z,101335.20
2023-05-08T20:08:39.506Z,101332.86
2023-05-08T20:13:41.601Z,101332.79
2023-05-08T20:18:44.384Z,101328.48
2023-05-08T20:23:46.572Z,101335.73
2023-05-08T20:28:48.962Z,101338.48
2023-05-08T20:33:51.159Z,101333.41
2023-05-08T20:38:54.817Z,101338.30
2023-05-08T20:43:59.656Z,101334.85
2023-05-08T20:49:03.645Z,101341.52
2023-05-08T20:55:11.185Z,101338.52
2023-05-08T21:00:14.751Z,101335.56
2023-05-08T21:05:18.183Z,101342.13
2023-05-08T21:10:20.642Z,101341.90
2023-05-08T21:15:22.758Z,101340.41
2023-05-08T21:20:24.951Z,101340.85
2023-05-08T21:25:27.124Z,101343.73
2023-05-08T21:30:36.170Z,101347.26
2023-05-08T21:35:38.371Z,101348.53
2023-05-08T21:40:40.762Z,101345.36
2023-05-08T21:45:43.040Z,101345.52
2023-05-08T21:50:45.345Z,101349.23
2023-05-08T21:55:47.506Z,101345.48
2023-05-08T22:00:49.684Z,101344.82
2023-05-08T22:05:51.872Z,101346.36
2023-05-08T22:10:53.960Z,101346.70
2023-05-08T22:15:56.785Z,101348.70
2023-05-08T22:20:59.038Z,101347.12
2023-05-08T22:26:02.441Z,101342.90
2023-05-08T22:31:06.275Z,101340.09
2023-05-08T22:36:09.445Z,101344.90
2023-05-08T22:41:11.571Z,101341.48
2023-05-08T22:46:16.478Z,101340.20
2023-05-08T22:51:19.109Z,101354.89
2023-05-08T22:56:21.700Z,101355.54
2023-05-08T23:01:24.118Z,101353.23
2023-05-08T23:06:26.582Z,101348.98
2023-05-08T23:11:28.660Z,101341.10
2023-05-08T23:16:30.886Z,101339.67
2023-05-08T23:21:33.548Z,101338.77
2023-05-08T23:26:35.727Z,101337.40
2023-05-08T23:31:37.870Z,101334.95
2023-05-08T23:36:40.198Z,101334.45
2023-05-08T23:41:42.493Z,101334.85
2023-05-08T23:46:45.857Z,101337.98
2023-05-08T23:51:48.085Z,101335.58
2023-05-08T23:56:50.377Z,101338.34
